Portada
METAR-TAF:

METAR-TAF

Aeroports :

Montgomery Field

San Diego, Califòrnia, Estats Units d'Amèrica

latitud: 32-48-52N, longitud: 117-08-11W, altitud: 128 m

Observació

L'informe es va fer fa 50 minuts, a les 12:53 UTC
Vent calma
Temperatura 14°C
Humitat 88%
Pressió 1015 hPa
Visibilitat: 11.3 km
Cel cobert a una alçada de 900 ft

METAR: KMYF 301253Z 00000KT 7SM OVC009 14/12 A2996 RMK AO2 SLP142 T01440117

Hora: 06:43 (13:43 UTC)


TAF: manca

Observacions i pronòstics meteorològics de més de 4000 aeroports (METAR i TAF).

Les estacions disponibles són els punts grocs i vermells al mapa.

Posi el ratolí al punt desitjat per veure el nom de l'estació.

Feu clic per veure les observacions i els pronòstics meteorològics.

Per canviar el mapa: feu clic els botons verds amb una creu de color negre per apropar; al botó verd amb un guió per allunyar la imatge; o en les fletxes verdes per a mapes adjacents.


METAR-TAF: